Varna, Bulgaria
Current Conditions -  °F | °C
As of 9:30 AM on Thursday 29 Jan 2015 (Local Time) from LBWN Reporting Station
Broken Clouds Broken Clouds  
Wind Chill:   Ceiling: 800
Heat Index:   Visibility: 6mi
Dew Point:   Wind: 0mph
Humidity: 100%   Direction: NA
Pressure: 29.85"   Gusts: NA
Location:  43.21°N, 27.9°E
Report Text: LBWN 290630Z 00000KT 9999 BKN008 BKN026 03/03 Q1011 R99/29//95 NOSIG
Loading
Personal Weather Stations






























Interactive Weather Map New forecast layout! Learn more

10-Day Weather Forecast

Advertisements
Track Severe Weather on mobile